地図

経路データ

SID SEASON NUMBER BASIN SUBBASIN NAME ISO_TIME NATURE LAT LON WMO_WIND WMO_PRES WMO_AGENCY TRACK_TYPE DIST2LAND LANDFALL IFLAG USA_AGENCY USA_ATCF_ID USA_LAT USA_LON USA_RECORD USA_STATUS USA_WIND USA_PRES USA_SSHS USA_R34_NE USA_R34_SE USA_R34_SW USA_R34_NW USA_R50_NE USA_R50_SE USA_R50_SW USA_R50_NW USA_R64_NE USA_R64_SE USA_R64_SW USA_R64_NW USA_POCI USA_ROCI USA_RMW USA_EYE TOKYO_LAT TOKYO_LON TOKYO_GRADE TOKYO_WIND TOKYO_PRES TOKYO_R50_DIR TOKYO_R50_LONG TOKYO_R50_SHORT TOKYO_R30_DIR TOKYO_R30_LONG TOKYO_R30_SHORT TOKYO_LAND CMA_LAT CMA_LON CMA_CAT CMA_WIND CMA_PRES HKO_LAT HKO_LON HKO_CAT HKO_WIND HKO_PRES NEWDELHI_LAT NEWDELHI_LON NEWDELHI_GRADE NEWDELHI_WIND NEWDELHI_PRES NEWDELHI_CI NEWDELHI_DP NEWDELHI_POCI REUNION_LAT REUNION_LON REUNION_TYPE REUNION_WIND REUNION_PRES REUNION_TNUM REUNION_CI REUNION_RMW REUNION_R34_NE REUNION_R34_SE REUNION_R34_SW REUNION_R34_NW REUNION_R50_NE REUNION_R50_SE REUNION_R50_SW REUNION_R50_NW REUNION_R64_NE REUNION_R64_SE REUNION_R64_SW REUNION_R64_NW BOM_LAT BOM_LON BOM_TYPE BOM_WIND BOM_PRES BOM_TNUM BOM_CI BOM_RMW BOM_R34_NE BOM_R34_SE BOM_R34_SW BOM_R34_NW BOM_R50_NE BOM_R50_SE BOM_R50_SW BOM_R50_NW BOM_R64_NE BOM_R64_SE BOM_R64_SW BOM_R64_NW BOM_ROCI BOM_POCI BOM_EYE BOM_POS_METHOD BOM_PRES_METHOD NADI_LAT NADI_LON NADI_CAT NADI_WIND NADI_PRES WELLINGTON_LAT WELLINGTON_LON WELLINGTON_WIND WELLINGTON_PRES DS824_LAT DS824_LON DS824_STAGE DS824_WIND DS824_PRES TD9636_LAT TD9636_LON TD9636_STAGE TD9636_WIND TD9636_PRES TD9635_LAT TD9635_LON TD9635_WIND TD9635_PRES TD9635_ROCI NEUMANN_LAT NEUMANN_LON NEUMANN_CLASS NEUMANN_WIND NEUMANN_PRES MLC_LAT MLC_LON MLC_CLASS MLC_WIND MLC_PRES USA_GUST BOM_GUST BOM_GUST_PER REUNION_GUST REUNION_GUST_PER USA_SEAHGT USA_SEARAD_NE USA_SEARAD_SE USA_SEARAD_SW USA_SEARAD_NW STORM_SPEED STORM_DIR
1946168N07133 1946 32 WP MM DOLLY 1946-06-17 00:00:00 TS 7.30000 132.800 main 684 650 O________OOO__ jtwc_wp WP031946 7.30000 132.800 50 0 7.30000 132.800 TC 50 7.30000 132.800 2 50 7.30000 132.800 50 1002 180 12 328
1946168N07133 1946 32 WP MM DOLLY 1946-06-17 03:00:00 TS 7.79153 132.486 main 650 619 P________PPP__ WP031946 7.80004 132.498 55 0 7.80004 132.498 TC 55 7.76601 132.451 2 53 7.80004 132.498 55 1002 180 12 328
1946168N07133 1946 32 WP MM DOLLY 1946-06-17 06:00:00 TS 8.28637 132.183 main 620 594 O________OPO__ jtwc_wp WP031946 8.30000 132.200 60 0 8.30000 132.200 TC 60 8.24548 132.131 2 57 8.30000 132.200 60 1002 180 12 330
1946168N07133 1946 32 WP MM DOLLY 1946-06-17 09:00:00 TS 8.78804 131.908 main 596 586 P________PPP__ WP031946 8.80000 131.920 62 0 8.80000 131.920 TC 62 8.75217 131.870 2 61 8.80000 131.920 62 1001 180 11 335
1946168N07133 1946 32 WP MM DOLLY 1946-06-17 12:00:00 TS 9.30000 131.700 main 589 582 O________OOO__ jtwc_wp WP031946 9.30000 131.700 65 1 9.30000 131.700 TC 65 9.30000 131.700 3 65 9.30000 131.700 65 1001 180 11 341
1946168N07133 1946 32 WP MM DOLLY 1946-06-17 15:00:00 TS 9.79609 131.554 main 592 581 P________PPP__ WP031946 9.76247 131.525 65 1 9.76247 131.525 TC 65 9.89698 131.642 3 65 9.76247 131.525 65 1001 180 11 352
1946168N07133 1946 32 WP MM DOLLY 1946-06-17 18:00:00 TS 10.3568 131.546 main 596 596 O________OPO__ jtwc_wp WP031946 10.3000 131.500 65 1 10.3000 131.500 TC 65 10.5273 131.685 3 65 10.3000 131.500 65 1001 180 13 7
1946168N07133 1946 32 WP MM DOLLY 1946-06-17 21:00:00 TS 11.0741 131.714 main 638 638 P________PPP__ WP031946 11.0425 131.682 65 1 11.0425 131.682 TC 65 11.1689 131.811 3 65 11.0425 131.682 65 1000 210 15 17
1946168N07133 1946 32 WP MM DOLLY 1946-06-18 00:00:00 TS 11.8000 132.000 main 682 682 O________OOO__ jtwc_wp WP031946 11.8000 132.000 65 1 11.8000 132.000 TC 65 11.8000 132.000 4 65 11.8000 132.000 65 999 240 15 25
1946168N07133 1946 32 WP MM DOLLY 1946-06-18 03:00:00 TS 12.3809 132.338 main 725 725 P________PPP__ WP031946 12.3726 132.358 65 1 12.3726 132.358 TC 65 12.4059 132.281 4 65 12.3726 132.358 65 998 240 13 30
1946168N07133 1946 32 WP MM DOLLY 1946-06-18 06:00:00 TS 12.9239 132.677 main 780 780 O________OPO__ jtwc_wp WP031946 12.9000 132.700 65 1 12.9000 132.700 TC 65 12.9955 132.608 4 65 12.9000 132.700 65 997 240 13 27
1946168N07133 1946 32 WP MM DOLLY 1946-06-18 09:00:00 TS 13.5324 132.935 main 815 815 P________PPP__ WP031946 13.5224 132.945 65 1 13.5224 132.945 TC 65 13.5622 132.906 4 65 13.5224 132.945 65 994 210 13 19
1946168N07133 1946 32 WP MM DOLLY 1946-06-18 12:00:00 TS 14.1000 133.100 main 850 850 O________OOO__ jtwc_wp WP031946 14.1000 133.100 65 1 14.1000 133.100 TC 65 14.1000 133.100 4 65 14.1000 133.100 65 992 180 11 15
1946168N07133 1946 32 WP MM DOLLY 1946-06-18 15:00:00 TS 14.5555 133.220 main 875 875 P________PPP__ WP031946 14.5074 133.225 65 1 14.5074 133.225 TC 65 14.6998 133.205 4 65 14.5074 133.225 65 989 180 9 5
1946168N07133 1946 32 WP MM DOLLY 1946-06-18 18:00:00 TS 14.9894 133.195 main 889 887 O________OPO__ jtwc_wp WP031946 14.9000 133.200 65 1 14.9000 133.200 TC 65 15.2576 133.182 4 65 14.9000 133.200 65 987 180 10 349
1946168N07133 1946 32 WP MM DOLLY 1946-06-18 21:00:00 TS 15.5602 133.014 main 894 876 P________PPP__ WP031946 15.5096 133.020 65 1 15.5096 133.020 TC 65 15.7117 132.993 4 65 15.5096 133.020 65 984 180 12 330
1946168N07133 1946 32 WP MM DOLLY 1946-06-19 00:00:00 TS 16.0000 132.600 main 876 825 O________OOO__ jtwc_wp WP031946 16.0000 132.600 65 1 16.0000 132.600 TC 65 16.0000 132.600 4 65 16.0000 132.600 65 982 180 12 297
1946168N07133 1946 32 WP MM DOLLY 1946-06-19 03:00:00 TS 16.0913 131.941 main 816 747 P________PPP__ WP031946 16.1200 131.940 70 1 16.1200 131.940 TC 70 16.0050 131.945 4 67 16.1200 131.940 70 980 210 14 269
1946168N07133 1946 32 WP MM DOLLY 1946-06-19 06:00:00 TS 15.9627 131.101 main 738 641 O________OPO__ jtwc_wp WP031946 16.0000 131.100 75 1 16.0000 131.100 TC 75 15.8507 131.103 4 70 16.0000 131.100 75 979 240 17 257
1946168N07133 1946 32 WP MM DOLLY 1946-06-19 09:00:00 TS 15.7129 130.184 main 641 552 P________PPP__ WP031946 15.7353 130.184 75 1 15.7353 130.184 TC 75 15.6456 130.185 4 72 15.7353 130.184 75 978 270 18 255
1946168N07133 1946 32 WP MM DOLLY 1946-06-19 12:00:00 TS 15.5000 129.300 main 552 486 O________OOO__ jtwc_wp WP031946 15.5000 129.300 75 1 15.5000 129.300 TC 75 15.5000 129.300 4 75 15.5000 129.300 75 977 300 15 263
1946168N07133 1946 32 WP MM DOLLY 1946-06-19 15:00:00 TS 15.5333 128.607 main 486 436 P________PPP__ WP031946 15.5319 128.613 77 1 15.5319 128.613 TC 77 15.5373 128.588 4 76 15.5319 128.613 77 975 270 13 278
1946168N07133 1946 32 WP MM DOLLY 1946-06-19 18:00:00 TS 15.6890 127.981 main 436 386 O________OPO__ jtwc_wp WP031946 15.7000 128.000 80 1 15.7000 128.000 TC 80 15.6561 127.925 4 77 15.7000 128.000 80 974 240 13 285
1946168N07133 1946 32 WP MM DOLLY 1946-06-19 21:00:00 TS 15.8698 127.326 main 383 348 P________PPP__ WP031946 15.8774 127.335 80 1 15.8774 127.335 TC 80 15.8469 127.300 4 78 15.8774 127.335 80 972 240 13 288
1946168N07133 1946 32 WP MM DOLLY 1946-06-20 00:00:00 TS 16.1000 126.700 main 348 326 O________OOO__ jtwc_wp WP031946 16.1000 126.700 80 1 16.1000 126.700 TC 80 16.1000 126.700 4 80 16.1000 126.700 80 971 240 12 292
1946168N07133 1946 32 WP MM DOLLY 1946-06-20 03:00:00 TS 16.3272 126.121 main 321 317 P________PPP__ WP031946 16.3122 126.142 87 2 16.3122 126.142 TC 87 16.3722 126.059 4 83 16.3122 126.142 87 968 240 12 296
1946168N07133 1946 32 WP MM DOLLY 1946-06-20 06:00:00 TS 16.6257 125.561 main 322 265 O________OPO__ jtwc_wp WP031946 16.6000 125.600 95 2 16.6000 125.600 TC 95 16.7027 125.446 4 87 16.6000 125.600 95 966 240 13 302
1946168N07133 1946 32 WP MM DOLLY 1946-06-20 09:00:00 TS 17.0243 124.954 main 265 209 P________PPP__ WP031946 17.0051 124.978 95 2 17.0051 124.978 TC 95 17.0818 124.884 4 91 17.0051 124.978 95 964 240 14 308
1946168N07133 1946 32 WP MM DOLLY 1946-06-20 12:00:00 TS 17.5000 124.400 main 209 182 O________OOO__ jtwc_wp WP031946 17.5000 124.400 95 2 17.5000 124.400 TC 95 17.5000 124.400 4 95 17.5000 124.400 95 962 240 14 317
1946168N07133 1946 32 WP MM DOLLY 1946-06-20 15:00:00 TS 18.0316 123.954 main 182 137 P________PPP__ WP031946 18.0573 123.940 95 2 18.0573 123.940 TC 95 17.9545 123.996 4 93 18.0573 123.940 95 962 240 13 325
1946168N07133 1946 32 WP MM DOLLY 1946-06-20 18:00:00 TS 18.5604 123.618 main 138 128 O________OPO__ jtwc_wp WP031946 18.6000 123.600 95 2 18.6000 123.600 TC 95 18.4416 123.672 4 92 18.6000 123.600 95 962 240 11 331
1946168N07133 1946 32 WP MM DOLLY 1946-06-20 21:00:00 TS 19.0056 123.380 main 133 131 P________PPP__ WP031946 19.0298 123.370 92 2 19.0298 123.370 TC 92 18.9329 123.412 4 91 19.0298 123.370 92 962 240 9 335
1946168N07133 1946 32 WP MM DOLLY 1946-06-21 00:00:00 TS 19.4000 123.200 main 146 146 O________OOO__ jtwc_wp WP031946 19.4000 123.200 90 2 19.4000 123.200 TC 90 19.4000 123.200 4 90 19.4000 123.200 90 962 240 8 334
1946168N07133 1946 32 WP MM DOLLY 1946-06-21 03:00:00 TS 19.7583 122.985 main 173 168 P________PPP__ WP031946 19.7500 122.985 90 2 19.7500 122.985 TC 90 19.7832 122.986 4 90 19.7500 122.985 90 961 240 8 332
1946168N07133 1946 32 WP MM DOLLY 1946-06-21 06:00:00 TS 20.1106 122.804 main 197 197 O________OPO__ jtwc_wp WP031946 20.1000 122.800 90 2 20.1000 122.800 TC 90 20.1422 122.817 4 90 20.1000 122.800 90 961 240 8 339
1946168N07133 1946 32 WP MM DOLLY 1946-06-21 09:00:00 TS 20.4900 122.686 main 238 208 P________PPP__ WP031946 20.4850 122.685 90 2 20.4850 122.685 TC 90 20.5052 122.689 4 90 20.4850 122.685 90 960 210 8 347
1946168N07133 1946 32 WP MM DOLLY 1946-06-21 12:00:00 TS 20.9000 122.600 main 208 178 O________OOO__ jtwc_wp WP031946 20.9000 122.600 90 2 20.9000 122.600 TC 90 20.9000 122.600 4 90 20.9000 122.600 90 960 180 9 348
1946168N07133 1946 32 WP MM DOLLY 1946-06-21 15:00:00 TS 21.3447 122.489 main 178 155 P________PPP__ WP031946 21.3275 122.478 95 2 21.3275 122.478 TC 95 21.3965 122.523 4 95 21.3275 122.478 95 957 180 10 350
1946168N07133 1946 32 WP MM DOLLY 1946-06-21 18:00:00 TS 21.8306 122.421 main 155 128 O________OPO__ jtwc_wp WP031946 21.8000 122.400 100 3 21.8000 122.400 TC 100 21.9224 122.482 4 100 21.8000 122.400 100 954 180 11 358
1946168N07133 1946 32 WP MM DOLLY 1946-06-21 21:00:00 TS 22.3887 122.439 main 128 114 P________PPP__ WP031946 22.3725 122.427 105 3 22.3725 122.427 TC 105 22.4371 122.476 4 105 22.3725 122.427 105 950 210 11 4
1946168N07133 1946 32 WP MM DOLLY 1946-06-22 00:00:00 TS 22.9000 122.500 main 114 112 O________OOO__ jtwc_wp WP031946 22.9000 122.500 110 3 22.9000 122.500 TC 110 22.9000 122.500 4 110 22.9000 122.500 110 947 240 9 6
1946168N07133 1946 32 WP MM DOLLY 1946-06-22 03:00:00 TS 23.2394 122.544 main 112 111 P________PPP__ WP031946 23.2375 122.543 110 3 23.2375 122.543 TC 110 23.2453 122.550 4 110 23.2375 122.543 110 945 240 6 9
1946168N07133 1946 32 WP MM DOLLY 1946-06-22 06:00:00 TS 23.5094 122.607 main 114 112 O________OPO__ jtwc_wp WP031946 23.5000 122.600 110 3 23.5000 122.600 TC 110 23.5375 122.627 4 110 23.5000 122.600 110 944 240 6 15
1946168N07133 1946 32 WP MM DOLLY 1946-06-22 09:00:00 TS 23.8027 122.704 main 112 101 P________PPP__ WP031946 23.8000 122.700 110 3 23.8000 122.700 TC 110 23.8109 122.716 4 110 23.8000 122.700 110 943 210 6 17
1946168N07133 1946 32 WP MM DOLLY 1946-06-22 12:00:00 TS 24.1000 122.800 main 101 93 O________OOO__ jtwc_wp WP031946 24.1000 122.800 110 3 24.1000 122.800 TC 110 24.1000 122.800 4 110 24.1000 122.800 110 942 180 6 14
1946168N07133 1946 32 WP MM DOLLY 1946-06-22 15:00:00 TS 24.3924 122.864 main 101 96 P________PPP__ WP031946 24.3775 122.858 110 3 24.3775 122.858 TC 110 24.4372 122.885 4 110 24.3775 122.858 110 942 180 6 9
1946168N07133 1946 32 WP MM DOLLY 1946-06-22 18:00:00 TS 24.7244 122.915 main 96 91 O________OPO__ jtwc_wp WP031946 24.7000 122.900 110 3 24.7000 122.900 TC 110 24.7975 122.959 4 110 24.7000 122.900 110 943 180 7 8
1946168N07133 1946 32 WP MM DOLLY 1946-06-22 21:00:00 TS 25.1304 122.975 main 101 101 P________PPP__ WP031946 25.1125 122.965 110 3 25.1125 122.965 TC 110 25.1840 123.004 4 110 25.1125 122.965 110 944 150 9 5
1946168N07133 1946 32 WP MM DOLLY 1946-06-23 00:00:00 TS 25.6000 123.000 main 120 120 O________OOO__ jtwc_wp WP031946 25.6000 123.000 110 3 25.6000 123.000 TC 110 25.6000 123.000 4 110 25.6000 123.000 110 945 120 10 0
1946168N07133 1946 32 WP MM DOLLY 1946-06-23 03:00:00 TS 26.1298 122.974 main 158 158 P________PPP__ WP031946 26.1575 122.987 97 3 26.1575 122.987 TC 97 26.0467 122.935 4 102 26.1575 122.987 97 947 120 11 354
1946168N07133 1946 32 WP MM DOLLY 1946-06-23 06:00:00 TS 26.6635 122.884 main 210 178 O________OPO__ jtwc_wp WP031946 26.7000 122.900 85 2 26.7000 122.900 TC 85 26.5177 122.819 4 95 26.7000 122.900 85 950 120 10 349
1946168N07133 1946 32 WP MM DOLLY 1946-06-23 09:00:00 TS 27.0990 122.753 main 178 125 P________PPP__ WP031946 27.1147 122.767 82 1 27.1147 122.767 TC 82 27.0049 122.669 4 87 27.1147 122.767 82 954 120 9 338
1946168N07133 1946 32 WP MM DOLLY 1946-06-23 12:00:00 TS 27.5000 122.500 main 125 66 O________OOO__ jtwc_wp WP031946 27.5000 122.500 80 1 27.5000 122.500 TC 80 27.5000 122.500 4 80 27.5000 122.500 80 958 120 10 323
1946168N07133 1946 32 WP MM DOLLY 1946-06-23 15:00:00 TS 27.9332 122.054 main 66 0 P________P_P__ WP031946 27.9332 122.054 75 1 27.9332 122.054 TC 75 4 27.9332 122.054 75 963 90 13 316
1946168N07133 1946 32 WP MM DOLLY 1946-06-23 18:00:00 TS 28.4000 121.500 main 0 O________O_O__ jtwc_wp WP031946 28.4000 121.500 70 1 28.4000 121.500 TC 70 4 28.4000 121.500 70 968 60 14 314

デジタル台風データ・検索

IBTrACS Databaseについて

本データベースは、米国NOAAが公開する1842年以降の世界の熱帯低気圧のベストトラックデータアーカイブInternational Best Track Archive for Climate Stewardship (IBTrACS)を、ウェブで閲覧しやすい形式に変換したものです。

最終更新日:2021-11-26